createdAt,value
2022-12-27T00:01:18.772Z,101856.00
2022-12-27T00:03:46.061Z,101873.72
2022-12-27T00:06:16.599Z,101873.72
2022-12-27T00:08:44.613Z,101956.72
2022-12-27T00:11:17.672Z,101873.91
2022-12-27T00:13:45.052Z,101884.41
2022-12-27T00:16:15.847Z,101941.84
2022-12-27T00:18:43.124Z,101943.84
2022-12-27T00:21:13.762Z,101901.47
2022-12-27T00:23:43.949Z,101936.00
2022-12-27T00:26:19.396Z,101934.38
2022-12-27T00:28:46.616Z,101883.25
2022-12-27T00:31:14.089Z,101956.59
2022-12-27T00:33:42.573Z,101897.41
2022-12-27T00:36:12.764Z,101916.13
2022-12-27T00:38:40.337Z,101959.25
2022-12-27T00:41:07.474Z,101957.25
2022-12-27T00:43:34.662Z,101896.00
2022-12-27T00:46:02.097Z,101882.13
2022-12-27T00:48:29.359Z,101983.25
2022-12-27T00:51:01.916Z,101986.25
2022-12-27T00:53:29.906Z,101939.50
2022-12-27T00:55:57.170Z,101898.81
2022-12-27T00:58:24.182Z,102009.66
2022-12-27T01:00:51.188Z,102008.53
2022-12-27T01:03:18.635Z,101841.44
2022-12-27T01:05:46.143Z,101981.41
2022-12-27T01:08:12.866Z,101926.22
2022-12-27T01:10:40.998Z,101975.91
2022-12-27T01:13:07.546Z,102005.25
2022-12-27T01:15:34.086Z,101995.88
2022-12-27T01:18:01.152Z,101885.56
2022-12-27T01:20:27.656Z,101996.16
2022-12-27T01:22:54.802Z,101988.00
2022-12-27T01:25:21.454Z,101944.69
2022-12-27T01:27:47.983Z,102006.34
2022-12-27T01:30:14.528Z,101911.63
2022-12-27T01:32:41.076Z,102030.84
2022-12-27T01:35:08.008Z,101977.19
2022-12-27T01:37:34.520Z,101976.69
2022-12-27T01:40:01.193Z,101972.66
2022-12-27T01:42:46.326Z,102021.72
2022-12-27T01:45:18.923Z,101978.81
2022-12-27T01:47:48.906Z,102027.06
2022-12-27T01:50:38.895Z,102023.16
2022-12-27T01:53:10.326Z,102007.25
2022-12-27T01:55:39.918Z,102035.06
2022-12-27T01:58:16.998Z,102037.69
2022-12-27T02:00:46.079Z,102056.25
2022-12-27T02:03:20.048Z,101943.19
2022-12-27T02:05:46.749Z,102036.06
2022-12-27T02:08:22.247Z,102060.38
2022-12-27T02:10:50.513Z,102067.72
2022-12-27T02:13:18.423Z,102022.16
2022-12-27T02:15:44.930Z,102040.34
2022-12-27T02:18:11.473Z,102051.97
2022-12-27T02:21:16.856Z,102066.16
2022-12-27T02:24:15.657Z,102080.94
2022-12-27T02:26:51.193Z,102073.69
2022-12-27T02:29:55.306Z,102079.84
2022-12-27T02:32:34.490Z,102086.91
2022-12-27T02:35:21.596Z,102069.59
2022-12-27T02:37:54.757Z,102043.00
2022-12-27T02:40:43.067Z,102054.31
2022-12-27T02:43:29.297Z,102070.13
2022-12-27T02:46:24.725Z,102094.56
2022-12-27T02:49:19.911Z,102040.97
2022-12-27T02:53:03.952Z,102081.28
2022-12-27T02:55:36.424Z,102089.28
2022-12-27T02:58:27.988Z,102094.72
2022-12-27T03:01:47.931Z,102077.31
2022-12-27T03:04:38.754Z,102096.72
2022-12-27T03:07:42.103Z,102103.59
2022-12-27T03:10:34.387Z,102096.09
2022-12-27T03:13:53.125Z,102083.94
2022-12-27T03:16:25.987Z,102093.63
2022-12-27T03:19:05.528Z,102095.44
2022-12-27T03:21:55.926Z,102085.53
2022-12-27T03:24:46.684Z,102085.72
2022-12-27T03:27:22.539Z,102064.72
2022-12-27T03:30:11.820Z,102067.41
2022-12-27T03:33:04.451Z,102066.44
2022-12-27T03:35:38.671Z,102103.97
2022-12-27T03:38:09.299Z,102060.66
2022-12-27T03:41:18.608Z,102061.69
2022-12-27T03:43:45.373Z,102075.81
2022-12-27T03:46:35.125Z,102073.63
2022-12-27T03:49:39.363Z,102105.69
2022-12-27T03:52:21.494Z,102104.09
2022-12-27T03:54:50.929Z,102093.59
2022-12-27T03:57:20.970Z,102013.94
2022-12-27T03:59:47.772Z,102084.13
2022-12-27T04:02:14.793Z,102093.41
2022-12-27T04:04:41.563Z,102080.69
2022-12-27T04:07:08.177Z,102110.75
2022-12-27T04:09:53.231Z,101984.31
2022-12-27T04:12:38.537Z,102084.03
2022-12-27T04:15:23.962Z,101989.03
2022-12-27T04:18:08.869Z,102072.81
2022-12-27T04:20:55.039Z,102025.53
2022-12-27T04:23:40.309Z,102030.97
2022-12-27T04:26:25.947Z,102058.69
2022-12-27T04:29:11.044Z,102113.38
2022-12-27T04:31:56.213Z,102093.00
2022-12-27T04:34:41.297Z,102048.63
2022-12-27T04:37:09.325Z,102098.84
2022-12-27T04:39:35.830Z,102014.13
2022-12-27T04:42:21.150Z,102083.72
2022-12-27T04:45:11.629Z,102095.13
2022-12-27T04:48:31.715Z,102116.09
2022-12-27T04:51:17.757Z,102103.25
2022-12-27T04:54:02.952Z,102082.78
2022-12-27T04:56:29.505Z,102081.47
2022-12-27T04:59:14.719Z,102092.56
2022-12-27T05:01:59.941Z,102118.78
2022-12-27T05:04:26.931Z,102068.97
2022-12-27T05:06:53.708Z,102113.75
2022-12-27T05:09:38.903Z,102130.84
2022-12-27T05:12:24.764Z,102124.34
2022-12-27T05:14:51.297Z,102127.66
2022-12-27T05:17:17.808Z,102119.91
2022-12-27T05:19:45.199Z,102130.84
2022-12-27T05:22:30.387Z,102115.78
2022-12-27T05:25:15.285Z,102088.53
2022-12-27T05:27:41.835Z,102126.25
2022-12-27T05:30:08.943Z,102146.69
2022-12-27T05:32:35.427Z,102138.94
2022-12-27T05:35:01.941Z,102157.88
2022-12-27T05:37:28.412Z,102050.03
2022-12-27T05:39:54.871Z,102147.34
2022-12-27T05:42:21.376Z,102160.94
2022-12-27T05:44:47.886Z,102175.41
2022-12-27T05:47:14.364Z,102120.72
2022-12-27T05:49:40.905Z,102163.22
2022-12-27T05:52:07.374Z,102164.81
2022-12-27T05:54:33.856Z,102157.25
2022-12-27T05:57:00.372Z,102100.88
2022-12-27T05:59:26.904Z,102170.19
2022-12-27T06:01:53.509Z,102163.81
2022-12-27T06:04:20.088Z,102167.44
2022-12-27T06:06:46.587Z,102168.34
2022-12-27T06:09:14.011Z,102070.41
2022-12-27T06:11:40.480Z,102187.22
2022-12-27T06:14:06.951Z,102174.91
2022-12-27T06:16:33.446Z,102169.66
2022-12-27T06:19:00.034Z,102182.78
2022-12-27T06:21:26.538Z,102185.50
2022-12-27T06:23:53.012Z,102173.72
2022-12-27T06:26:22.908Z,102100.56
2022-12-27T06:28:50.128Z,102180.97
2022-12-27T06:31:18.682Z,102164.81
2022-12-27T06:33:46.228Z,102175.22
2022-12-27T06:36:15.414Z,102191.06
2022-12-27T06:38:42.572Z,102178.34
2022-12-27T06:41:11.396Z,102161.38
2022-12-27T06:43:38.132Z,102188.84
2022-12-27T06:46:11.233Z,102159.47
2022-12-27T06:48:40.604Z,102170.69
2022-12-27T06:51:09.362Z,102187.03
2022-12-27T06:53:36.482Z,102191.66
2022-12-27T06:56:04.869Z,102092.59
2022-12-27T06:58:31.329Z,102204.19
2022-12-27T07:00:57.898Z,102194.09
2022-12-27T07:03:24.471Z,102206.78
2022-12-27T07:05:50.954Z,102183.38
2022-12-27T07:08:17.414Z,102090.31
2022-12-27T07:10:43.920Z,102078.13
2022-12-27T07:13:10.378Z,102198.91
2022-12-27T07:15:38.554Z,102226.78
2022-12-27T07:18:05.050Z,102202.03
2022-12-27T07:20:31.612Z,102232.22
2022-12-27T07:23:00.017Z,102170.06
2022-12-27T07:25:27.619Z,102232.25
2022-12-27T07:27:54.520Z,102134.63
2022-12-27T07:30:21.015Z,102211.75
2022-12-27T07:32:47.539Z,102249.50
2022-12-27T07:35:14.263Z,102219.50
2022-12-27T07:37:40.756Z,102170.66
2022-12-27T07:40:07.913Z,102250.63
2022-12-27T07:42:34.571Z,102241.91
2022-12-27T07:45:01.046Z,102266.06
2022-12-27T07:47:28.147Z,102256.88
2022-12-27T07:49:54.867Z,102130.69
2022-12-27T07:52:21.371Z,102247.78
2022-12-27T07:54:47.826Z,102139.16
2022-12-27T07:57:14.317Z,102235.25
2022-12-27T07:59:40.804Z,102163.97
2022-12-27T08:02:09.527Z,102119.97
2022-12-27T08:04:38.210Z,102273.44
2022-12-27T08:07:16.724Z,102293.22
2022-12-27T08:09:46.145Z,102239.69
2022-12-27T08:12:13.608Z,102266.06
2022-12-27T08:14:40.670Z,102276.84
2022-12-27T08:17:20.233Z,102296.66
2022-12-27T08:19:47.099Z,102178.72
2022-12-27T08:22:13.984Z,102216.06
2022-12-27T08:24:41.521Z,102280.69
2022-12-27T08:27:09.767Z,102284.41
2022-12-27T08:29:36.538Z,102206.50
2022-12-27T08:32:03.803Z,102212.16
2022-12-27T08:34:30.313Z,102184.19
2022-12-27T08:36:57.015Z,102319.25
2022-12-27T08:39:24.327Z,102213.03
2022-12-27T08:41:53.914Z,102292.16
2022-12-27T08:44:20.570Z,102313.16
2022-12-27T08:46:47.368Z,102149.53
2022-12-27T08:49:13.894Z,102296.53
2022-12-27T08:51:41.603Z,102297.28
2022-12-27T08:54:09.693Z,102266.78
2022-12-27T08:56:36.217Z,102309.41
2022-12-27T08:59:03.579Z,102289.53
2022-12-27T09:01:30.155Z,102284.13
2022-12-27T09:03:56.745Z,102215.78
2022-12-27T09:06:24.717Z,102238.19
2022-12-27T09:08:54.501Z,102200.63
2022-12-27T09:11:24.837Z,102214.81
2022-12-27T09:13:51.957Z,102309.94
2022-12-27T09:16:24.407Z,102230.44
2022-12-27T09:18:53.180Z,102221.00
2022-12-27T09:21:21.943Z,102284.31
2022-12-27T09:23:49.405Z,102288.28
2022-12-27T09:26:18.637Z,102245.47
2022-12-27T09:28:46.676Z,102275.09
2022-12-27T09:31:14.573Z,102217.97
2022-12-27T09:33:41.214Z,102156.78
2022-12-27T09:36:14.010Z,102219.13
2022-12-27T09:38:41.836Z,102279.13
2022-12-27T09:42:26.020Z,102302.22
2022-12-27T09:44:38.791Z,102305.09
2022-12-27T09:47:20.403Z,102307.69
2022-12-27T09:49:52.542Z,102230.00
2022-12-27T09:52:23.113Z,102303.72
2022-12-27T09:55:08.006Z,102312.25
2022-12-27T09:57:38.730Z,102221.13
2022-12-27T10:00:14.699Z,102312.50
2022-12-27T10:02:44.452Z,102304.56
2022-12-27T10:05:22.056Z,102310.34
2022-12-27T10:08:07.434Z,102326.72
2022-12-27T10:11:32.854Z,102332.56
2022-12-27T10:14:09.180Z,102321.13
2022-12-27T10:16:42.445Z,102305.66
2022-12-27T10:19:44.799Z,102327.75
2022-12-27T10:22:30.662Z,102320.69
2022-12-27T10:25:00.133Z,102250.97
2022-12-27T10:27:29.198Z,102326.78
2022-12-27T10:30:00.005Z,102232.41
2022-12-27T10:32:27.225Z,102315.47
2022-12-27T10:35:01.198Z,102311.53
2022-12-27T10:37:28.528Z,102227.00
2022-12-27T10:40:01.399Z,102289.44
2022-12-27T10:42:37.217Z,102296.25
2022-12-27T10:45:32.342Z,102310.41
2022-12-27T10:48:21.788Z,102308.91
2022-12-27T10:51:20.696Z,102310.19
2022-12-27T10:53:47.234Z,102317.19
2022-12-27T10:56:26.731Z,102270.69
2022-12-27T10:59:04.522Z,102313.34
2022-12-27T11:01:32.582Z,102215.69
2022-12-27T11:04:19.434Z,102307.66
2022-12-27T11:06:49.721Z,102291.25
2022-12-27T11:09:31.959Z,102268.69
2022-12-27T11:12:21.685Z,102309.84
2022-12-27T11:15:18.586Z,102303.00
2022-12-27T11:17:48.662Z,102275.03
2022-12-27T11:20:20.432Z,102303.88
2022-12-27T11:22:53.896Z,102292.50
2022-12-27T11:25:21.343Z,102282.94
2022-12-27T11:27:51.799Z,102250.47
2022-12-27T11:30:47.566Z,102291.69
2022-12-27T11:33:24.642Z,102288.72
2022-12-27T11:35:55.561Z,102307.59
2022-12-27T11:38:31.183Z,102274.34
2022-12-27T11:41:15.292Z,102182.78
2022-12-27T11:43:54.249Z,102259.38
2022-12-27T11:46:28.855Z,102207.44
2022-12-27T11:48:58.759Z,102271.75
2022-12-27T11:51:29.922Z,102290.34
2022-12-27T11:54:12.287Z,102293.59
2022-12-27T11:56:48.282Z,102261.16
2022-12-27T11:59:27.953Z,102300.31
2022-12-27T12:02:26.282Z,102257.09
2022-12-27T12:05:27.669Z,102266.38
2022-12-27T12:08:32.537Z,102275.44
2022-12-27T12:11:12.809Z,102209.44
2022-12-27T12:14:04.055Z,102254.41
2022-12-27T12:16:57.118Z,102261.50
2022-12-27T12:19:26.627Z,102267.13
2022-12-27T12:21:55.910Z,102259.75
2022-12-27T12:24:47.241Z,102255.34
2022-12-27T12:27:42.659Z,102231.16
2022-12-27T12:30:27.760Z,102220.31
2022-12-27T12:33:12.841Z,102252.00
2022-12-27T12:35:57.587Z,102249.38
2022-12-27T12:38:39.590Z,102198.16
2022-12-27T12:41:53.549Z,102236.88
2022-12-27T12:44:46.489Z,102242.75
2022-12-27T12:47:26.307Z,102222.69
2022-12-27T12:50:18.282Z,102130.13
2022-12-27T12:53:06.530Z,102225.38
2022-12-27T12:56:04.006Z,102227.78
2022-12-27T12:58:42.428Z,102221.41
2022-12-27T13:01:28.778Z,102140.66
2022-12-27T13:04:31.509Z,102224.13
2022-12-27T13:07:15.855Z,102216.50
2022-12-27T13:10:00.380Z,102218.31
2022-12-27T13:12:52.884Z,102212.28
2022-12-27T13:15:51.770Z,102206.09
2022-12-27T13:18:35.224Z,102197.63
2022-12-27T13:21:01.685Z,102193.56
2022-12-27T13:23:40.883Z,102181.78
2022-12-27T13:26:21.364Z,102106.94
2022-12-27T13:29:10.853Z,102155.59
2022-12-27T13:31:53.171Z,102079.94
2022-12-27T13:35:07.165Z,102160.16
2022-12-27T13:37:56.135Z,102157.88
2022-12-27T13:41:04.825Z,102156.34
2022-12-27T13:43:59.046Z,102153.44
2022-12-27T13:46:42.111Z,102133.16
2022-12-27T13:49:21.389Z,102123.94
2022-12-27T13:51:50.238Z,102125.94
2022-12-27T13:54:54.364Z,102119.72
2022-12-27T13:57:37.761Z,102121.56
2022-12-27T14:00:18.985Z,102091.75
2022-12-27T14:03:14.127Z,102122.28
2022-12-27T14:05:40.686Z,102119.50
2022-12-27T14:08:22.282Z,102115.13
2022-12-27T14:10:58.656Z,102104.53
2022-12-27T14:13:36.315Z,102120.25
2022-12-27T14:16:12.677Z,102105.66
2022-12-27T14:19:19.136Z,102102.50
2022-12-27T14:21:54.455Z,102106.13
2022-12-27T14:25:05.646Z,102112.69
2022-12-27T14:27:40.583Z,102109.06
2022-12-27T14:30:22.308Z,102115.91
2022-12-27T14:33:04.753Z,102034.97
2022-12-27T14:35:59.940Z,102100.25
2022-12-27T14:39:09.671Z,102090.91
2022-12-27T14:41:59.960Z,102106.78
2022-12-27T14:44:53.751Z,102022.81
2022-12-27T14:47:44.992Z,102066.34
2022-12-27T14:50:17.123Z,102087.91
2022-12-27T14:53:18.561Z,101992.63
2022-12-27T14:55:54.541Z,102087.38
2022-12-27T14:58:55.276Z,102081.09
2022-12-27T15:01:55.943Z,102077.41
2022-12-27T15:04:42.184Z,102075.13
2022-12-27T15:07:35.109Z,102073.09
2022-12-27T15:10:17.799Z,102056.75
2022-12-27T15:13:14.181Z,101981.91
2022-12-27T15:16:15.901Z,102075.25
2022-12-27T15:18:48.867Z,102065.16
2022-12-27T15:21:24.449Z,102077.47
2022-12-27T15:23:54.526Z,102061.97
2022-12-27T15:26:52.816Z,102065.22
2022-12-27T15:29:27.653Z,102069.66
2022-12-27T15:32:14.280Z,102060.34
2022-12-27T15:35:28.687Z,102065.25
2022-12-27T15:38:09.382Z,101962.13
2022-12-27T15:40:39.620Z,102066.84
2022-12-27T15:43:30.100Z,102042.72
2022-12-27T15:46:35.709Z,102041.81
2022-12-27T15:49:32.275Z,102037.06
2022-12-27T15:52:07.709Z,102064.75
2022-12-27T15:54:50.280Z,102060.84
2022-12-27T15:57:35.664Z,102042.44
2022-12-27T16:00:17.500Z,102061.06
2022-12-27T16:02:44.037Z,102069.44
2022-12-27T16:05:13.455Z,102062.84
2022-12-27T16:07:44.340Z,102067.81
2022-12-27T16:10:36.074Z,102049.03
2022-12-27T16:13:11.735Z,102059.44
2022-12-27T16:15:53.571Z,101957.59
2022-12-27T16:18:23.270Z,102060.88
2022-12-27T16:21:18.919Z,102053.94
2022-12-27T16:23:45.313Z,102046.88
2022-12-27T16:26:26.088Z,102045.72
2022-12-27T16:29:15.047Z,102046.47
2022-12-27T16:31:50.057Z,101958.34
2022-12-27T16:34:27.978Z,102043.66
2022-12-27T16:36:57.312Z,101950.81
2022-12-27T16:39:27.013Z,102035.81
2022-12-27T16:41:56.700Z,101950.66
2022-12-27T16:44:26.314Z,101987.31
2022-12-27T16:47:17.133Z,102036.59
2022-12-27T16:50:08.530Z,102034.03
2022-12-27T16:53:00.793Z,102038.56
2022-12-27T16:56:06.183Z,101950.06
2022-12-27T16:58:36.420Z,101981.72
2022-12-27T17:01:27.143Z,102036.91
2022-12-27T17:03:55.151Z,102025.81
2022-12-27T17:06:36.990Z,102037.06
2022-12-27T17:09:09.708Z,102030.88
2022-12-27T17:11:38.782Z,102027.56
2022-12-27T17:14:20.901Z,102018.50
2022-12-27T17:16:52.933Z,102023.88
2022-12-27T17:19:56.929Z,102016.56
2022-12-27T17:22:30.460Z,101961.59
2022-12-27T17:25:01.106Z,101928.97
2022-12-27T17:27:46.496Z,102012.63
2022-12-27T17:30:19.898Z,101988.66
2022-12-27T17:33:02.640Z,102002.69
2022-12-27T17:35:41.244Z,102005.53
2022-12-27T17:38:32.138Z,102005.47
2022-12-27T17:41:11.969Z,102003.91
2022-12-27T17:44:09.677Z,101997.69
2022-12-27T17:46:55.519Z,101995.09
2022-12-27T17:49:31.071Z,101903.13
2022-12-27T17:52:17.047Z,101998.31
2022-12-27T17:55:02.289Z,101964.53
2022-12-27T17:57:47.657Z,101968.16
2022-12-27T18:00:36.247Z,101981.41
2022-12-27T18:03:08.713Z,101972.00
2022-12-27T18:05:41.630Z,101884.66
2022-12-27T18:08:29.965Z,101963.56
2022-12-27T18:10:57.805Z,101974.25
2022-12-27T18:13:26.745Z,101865.03
2022-12-27T18:15:53.792Z,101853.28
2022-12-27T18:18:38.827Z,101940.03
2022-12-27T18:21:06.952Z,101880.59
2022-12-27T18:23:41.889Z,101965.59
2022-12-27T18:26:13.883Z,101928.75
2022-12-27T18:28:42.075Z,101862.88
2022-12-27T18:31:24.329Z,101947.50
2022-12-27T18:33:54.045Z,101885.84
2022-12-27T18:36:45.783Z,101929.94
2022-12-27T18:39:33.909Z,101916.13
2022-12-27T18:42:11.968Z,101934.38
2022-12-27T18:44:47.921Z,101925.94
2022-12-27T18:47:21.518Z,101894.69
2022-12-27T18:49:58.159Z,101930.75
2022-12-27T18:52:30.813Z,101829.78
2022-12-27T18:55:05.878Z,101927.31
2022-12-27T18:57:35.451Z,101890.97
2022-12-27T19:00:14.982Z,101900.16
2022-12-27T19:02:42.469Z,101831.19
2022-12-27T19:05:13.672Z,101912.69
2022-12-27T19:07:40.351Z,101898.50
2022-12-27T19:10:16.992Z,101815.09
2022-12-27T19:12:44.191Z,101908.22
2022-12-27T19:15:21.955Z,101875.75
2022-12-27T19:17:50.635Z,101893.59
2022-12-27T19:20:35.768Z,101889.00
2022-12-27T19:23:23.927Z,101881.94
2022-12-27T19:26:16.540Z,101889.00
2022-12-27T19:28:45.104Z,101894.00
2022-12-27T19:31:19.657Z,101768.09
2022-12-27T19:33:55.958Z,101882.47
2022-12-27T19:36:27.601Z,101870.28
2022-12-27T19:38:54.912Z,101868.31
2022-12-27T19:41:21.502Z,101850.03
2022-12-27T19:43:48.127Z,101864.84
2022-12-27T19:46:15.142Z,101843.97
2022-12-27T19:48:41.859Z,101819.81
2022-12-27T19:51:15.597Z,101860.75
2022-12-27T19:53:43.951Z,101829.66
2022-12-27T19:56:11.653Z,101824.91
2022-12-27T19:58:38.955Z,101849.56
2022-12-27T20:01:05.484Z,101850.53
2022-12-27T20:03:31.969Z,101727.19
2022-12-27T20:06:12.922Z,101809.84
2022-12-27T20:08:44.785Z,101839.66
2022-12-27T20:11:19.380Z,101824.75
2022-12-27T20:13:46.751Z,101783.06
2022-12-27T20:16:16.543Z,101809.44
2022-12-27T20:18:43.759Z,101742.75
2022-12-27T20:21:13.159Z,101799.06
2022-12-27T20:23:39.915Z,101810.56
2022-12-27T20:26:06.507Z,101789.38
2022-12-27T20:28:33.068Z,101719.19
2022-12-27T20:31:04.946Z,101712.34
2022-12-27T20:33:31.408Z,101749.34
2022-12-27T20:35:58.415Z,101808.91
2022-12-27T20:38:25.964Z,101725.81
2022-12-27T20:40:53.170Z,101698.72
2022-12-27T20:43:19.719Z,101799.06
2022-12-27T20:45:46.901Z,101784.75
2022-12-27T20:48:13.541Z,101746.06
2022-12-27T20:50:40.820Z,101668.72
2022-12-27T20:53:07.619Z,101789.66
2022-12-27T20:55:34.406Z,101781.59
2022-12-27T20:58:01.578Z,101767.28
2022-12-27T21:00:28.079Z,101752.09
2022-12-27T21:02:54.814Z,101775.00
2022-12-27T21:05:21.441Z,101731.78
2022-12-27T21:07:47.953Z,101757.97
2022-12-27T21:10:14.932Z,101757.38
2022-12-27T21:12:41.588Z,101740.53
2022-12-27T21:15:09.095Z,101652.44
2022-12-27T21:17:35.597Z,101773.56
2022-12-27T21:20:02.246Z,101724.94
2022-12-27T21:22:28.804Z,101725.09
2022-12-27T21:24:55.318Z,101756.47
2022-12-27T21:27:21.877Z,101709.97
2022-12-27T21:29:48.485Z,101753.47
2022-12-27T21:32:15.780Z,101649.03
2022-12-27T21:34:42.732Z,101648.66
2022-12-27T21:37:13.422Z,101714.47
2022-12-27T21:39:40.567Z,101657.91
2022-12-27T21:42:07.517Z,101738.44
2022-12-27T21:44:36.762Z,101726.63
2022-12-27T21:47:05.581Z,101589.03
2022-12-27T21:49:32.211Z,101701.94
2022-12-27T21:51:58.810Z,101722.28
2022-12-27T21:54:25.369Z,101707.22
2022-12-27T21:56:51.927Z,101696.41
2022-12-27T21:59:18.663Z,101586.81
2022-12-27T22:01:50.427Z,101679.22
2022-12-27T22:04:21.264Z,101678.66
2022-12-27T22:06:48.314Z,101691.44
2022-12-27T22:09:15.538Z,101651.97
2022-12-27T22:11:42.297Z,101563.91
2022-12-27T22:14:08.837Z,101636.34
2022-12-27T22:16:37.980Z,101647.25
2022-12-27T22:19:12.622Z,101672.63
2022-12-27T22:21:40.263Z,101575.66
2022-12-27T22:24:07.360Z,101651.69
2022-12-27T22:26:39.487Z,101655.50
2022-12-27T22:29:07.677Z,101647.56
2022-12-27T22:31:36.593Z,101613.44
2022-12-27T22:34:04.260Z,101646.38
2022-12-27T22:36:31.573Z,101527.75
2022-12-27T22:38:59.530Z,101604.47
2022-12-27T22:41:29.567Z,101532.72
2022-12-27T22:43:58.863Z,101570.97
2022-12-27T22:46:26.744Z,101587.13
2022-12-27T22:48:58.969Z,101524.38
2022-12-27T22:51:28.383Z,101623.09
2022-12-27T22:53:56.356Z,101609.78
2022-12-27T22:56:29.077Z,101493.31
2022-12-27T22:58:56.438Z,101524.06
2022-12-27T23:01:27.654Z,101568.59
2022-12-27T23:03:58.810Z,101467.09
2022-12-27T23:06:26.717Z,101571.69
2022-12-27T23:08:54.085Z,101571.03
2022-12-27T23:11:23.045Z,101568.56
2022-12-27T23:13:55.622Z,101537.38
2022-12-27T23:16:22.285Z,101552.13
2022-12-27T23:18:48.957Z,101473.78
2022-12-27T23:21:20.325Z,101517.31
2022-12-27T23:23:50.564Z,101524.78
2022-12-27T23:26:19.201Z,101545.50
2022-12-27T23:28:47.370Z,101545.25
2022-12-27T23:31:14.775Z,101538.81
2022-12-27T23:33:42.628Z,101537.00
2022-12-27T23:36:10.716Z,101543.97
2022-12-27T23:38:37.318Z,101438.84
2022-12-27T23:41:07.055Z,101535.00
2022-12-27T23:43:54.449Z,101407.41
2022-12-27T23:46:28.476Z,101507.47
2022-12-27T23:48:56.562Z,101468.88
2022-12-27T23:51:23.728Z,101494.19
2022-12-27T23:53:50.849Z,101375.34
2022-12-27T23:56:18.798Z,101492.28
2022-12-27T23:58:45.849Z,101384.78
